Time;durP1;ratioP1;P1;durP2;ratioP2;P2;SDS_P1;SDS_P2;PMS_P1;PMS_P2;Temp;Humidity;BMP_temperature;BMP_pressure;BME280_temperature;BME280_humidity;BME280_pressure;Samples;Min_cycle;Max_cycle;Signal;HPM_P1;HPM_P2
2023/09/09 00:01:41;;;;;;;2.08;1.83;;;;;;;19.15;95.41;98637.56;4160834;28;20678;-88
2023/09/09 00:03:43;;;;;;;2.10;1.75;;;;;;;19.19;96.11;98637.78;4162589;28;20662;-86
2023/09/09 00:05:44;;;;;;;2.15;1.95;;;;;;;19.11;95.49;98635.69;4157926;28;20320;-89
2023/09/09 00:07:46;;;;;;;3.67;2.63;;;;;;;19.12;95.53;98637.34;4158513;28;20243;-88
2023/09/09 00:09:48;;;;;;;2.53;1.63;;;;;;;19.17;95.59;98637.25;4145049;28;20229;-88
2023/09/09 00:11:50;;;;;;;2.78;2.13;;;;;;;19.11;95.31;98641.25;4160639;28;20206;-89
2023/09/09 00:13:53;;;;;;;2.10;1.42;;;;;;;19.08;95.07;98631.56;4160272;28;20217;-88
2023/09/09 00:15:55;;;;;;;1.63;1.52;;;;;;;19.02;94.92;98632.78;4158999;28;20678;-88
2023/09/09 00:17:57;;;;;;;2.35;1.42;;;;;;;19.01;95.12;98630.28;4145318;28;20206;-87
2023/09/09 00:19:59;;;;;;;1.20;1.20;;;;;;;18.93;95.26;98629.00;4157930;28;20686;-88
2023/09/09 00:22:01;;;;;;;2.63;1.45;;;;;;;18.93;95.35;98628.22;4159832;28;20561;-88
2023/09/09 00:24:03;;;;;;;2.13;1.92;;;;;;;18.86;95.14;98625.00;4142110;28;20633;-88
2023/09/09 00:26:05;;;;;;;3.10;2.80;;;;;;;18.82;95.41;98622.00;4153784;28;20209;-89
2023/09/09 00:28:09;;;;;;;1.45;1.35;;;;;;;18.75;95.65;98627.09;4164621;28;20235;-88
2023/09/09 00:30:11;;;;;;;3.00;2.70;;;;;;;18.81;95.72;98627.84;4161699;28;20255;-88
2023/09/09 00:32:13;;;;;;;1.83;1.67;;;;;;;18.74;95.95;98628.22;4160882;28;20208;-89
2023/09/09 00:34:14;;;;;;;1.42;1.13;;;;;;;18.71;96.09;98622.47;4160333;28;20232;-90
2023/09/09 00:36:16;;;;;;;3.60;2.72;;;;;;;18.70;96.22;98629.94;4161146;28;20208;-88
2023/09/09 00:38:18;;;;;;;2.78;1.75;;;;;;;18.67;96.18;98622.22;4159389;28;20295;-88
2023/09/09 00:40:19;;;;;;;5.07;2.28;;;;;;;18.64;96.82;98624.78;4162972;28;20208;-88
2023/09/09 00:42:21;;;;;;;1.60;1.25;;;;;;;18.57;97.74;98624.34;4141400;28;20664;-88
2023/09/09 00:44:23;;;;;;;2.55;1.45;;;;;;;18.51;97.73;98622.75;4153628;28;20666;-89
2023/09/09 00:46:24;;;;;;;1.80;1.50;;;;;;;18.45;98.24;98627.50;4160779;28;20247;-89
2023/09/09 00:48:26;;;;;;;4.30;1.40;;;;;;;18.50;98.17;98632.16;4158389;28;20208;-89
2023/09/09 00:50:28;;;;;;;1.85;1.55;;;;;;;18.53;97.69;98631.59;4161695;28;20216;-88
2023/09/09 00:52:30;;;;;;;2.30;1.95;;;;;;;18.52;97.49;98627.97;4159976;28;20212;-88
2023/09/09 00:54:32;;;;;;;3.10;1.88;;;;;;;18.53;97.26;98629.63;4146306;28;20284;-89
2023/09/09 00:56:34;;;;;;;1.35;1.25;;;;;;;18.50;96.80;98619.13;4161479;28;20279;-88
2023/09/09 00:58:36;;;;;;;3.65;2.17;;;;;;;18.51;96.56;98623.56;4157030;28;20675;-89
2023/09/09 01:00:38;;;;;;;1.85;1.58;;;;;;;18.51;96.08;98615.25;4137929;28;20216;-89
2023/09/09 01:02:40;;;;;;;2.28;1.42;;;;;;;18.53;95.98;98626.03;4139475;28;20257;-88
2023/09/09 01:04:42;;;;;;;2.45;2.22;;;;;;;18.48;96.04;98620.56;4141281;28;20278;-89
2023/09/09 01:06:44;;;;;;;1.85;1.75;;;;;;;18.41;96.18;98625.66;4159829;28;20270;-88
2023/09/09 01:08:47;;;;;;;2.42;2.33;;;;;;;18.41;95.79;98625.66;4144439;28;20210;-88
2023/09/09 01:10:49;;;;;;;3.05;1.90;;;;;;;18.44;96.07;98625.06;4141731;28;20209;-89
2023/09/09 01:12:51;;;;;;;3.08;2.15;;;;;;;18.37;95.53;98621.81;4144150;28;20296;-89
2023/09/09 01:14:52;;;;;;;1.65;1.13;;;;;;;18.41;95.85;98620.94;4146213;28;20496;-90
2023/09/09 01:16:55;;;;;;;1.95;1.38;;;;;;;18.39;95.57;98616.81;4146654;28;20393;-91
2023/09/09 01:18:57;;;;;;;1.30;1.20;;;;;;;18.36;95.38;98617.38;4160586;28;20328;-88
2023/09/09 01:21:07;;;;;;;2.65;1.50;;;;;;;18.39;95.34;98617.63;4144077;28;20209;-89
2023/09/09 01:23:08;;;;;;;1.17;1.08;;;;;;;18.38;95.61;98617.94;4142972;28;20240;-89
2023/09/09 01:25:11;;;;;;;2.97;2.38;;;;;;;18.35;95.12;98621.28;4143167;28;20312;-88
2023/09/09 01:27:14;;;;;;;2.35;2.03;;;;;;;18.37;95.33;98621.81;4155696;28;20306;-89
2023/09/09 01:29:16;;;;;;;5.53;3.05;;;;;;;18.31;95.71;98611.94;4159710;28;20440;-88
2023/09/09 01:31:18;;;;;;;1.95;1.63;;;;;;;18.27;95.67;98613.63;4162595;28;20205;-89
2023/09/09 01:33:19;;;;;;;1.92;1.17;;;;;;;18.19;95.85;98611.50;4159270;28;20411;-90
2023/09/09 01:35:21;;;;;;;2.50;1.40;;;;;;;18.11;96.09;98612.97;4161028;28;20892;-88
2023/09/09 01:37:22;;;;;;;1.92;1.83;;;;;;;18.08;96.41;98609.97;4161388;28;20570;-88
2023/09/09 01:39:24;;;;;;;3.55;2.20;;;;;;;18.11;96.58;98621.28;4163335;28;20197;-88
2023/09/09 01:41:26;;;;;;;1.70;1.60;;;;;;;18.09;96.80;98611.63;4161977;28;20252;-88
2023/09/09 01:43:27;;;;;;;2.65;1.77;;;;;;;17.98;97.23;98610.13;4146061;28;20208;-88
2023/09/09 01:45:29;;;;;;;3.08;1.80;;;;;;;17.93;97.55;98613.75;4160390;28;20271;-89
2023/09/09 01:47:30;;;;;;;2.53;2.33;;;;;;;17.92;97.70;98623.19;4161905;28;20255;-89
2023/09/09 01:49:32;;;;;;;3.47;2.75;;;;;;;17.86;97.28;98618.81;4174803;28;20235;-88
2023/09/09 01:51:34;;;;;;;2.25;1.40;;;;;;;17.87;97.16;98619.66;4144271;28;20215;-89
2023/09/09 01:53:36;;;;;;;2.33;2.13;;;;;;;17.81;97.25;98618.06;4169018;28;20230;-89
2023/09/09 01:55:38;;;;;;;2.90;1.65;;;;;;;17.78;97.68;98615.88;4160197;28;20219;-88
2023/09/09 01:57:39;;;;;;;1.98;1.77;;;;;;;17.71;97.67;98610.69;4143027;28;20239;-88
2023/09/09 01:59:44;;;;;;;1.92;1.83;;;;;;;17.71;97.69;98615.41;4162567;28;20200;-89
2023/09/09 02:01:45;;;;;;;3.13;2.83;;;;;;;17.66;97.65;98623.78;4156522;28;20716;-87
2023/09/09 02:03:47;;;;;;;2.20;1.98;;;;;;;17.63;97.30;98619.63;4159051;28;20539;-89
2023/09/09 02:05:49;;;;;;;2.17;1.95;;;;;;;17.66;97.21;98623.78;4142487;28;20765;-89
2023/09/09 02:07:50;;;;;;;2.25;2.05;;;;;;;17.74;97.55;98626.72;4161827;28;20235;-89
2023/09/09 02:09:52;;;;;;;2.25;2.05;;;;;;;17.69;96.99;98624.00;4161242;28;20208;-89
2023/09/09 02:11:54;;;;;;;4.45;2.50;;;;;;;17.69;97.25;98624.00;4143259;28;20213;-89
2023/09/09 02:13:55;;;;;;;2.80;2.00;;;;;;;17.67;96.88;98620.72;4158716;28;20239;-90
2023/09/09 02:16:07;;;;;;;10.48;2.25;;;;;;;17.76;96.69;98629.19;4145566;28;20201;-88
2023/09/09 02:18:09;;;;;;;2.13;1.67;;;;;;;17.76;96.74;98623.66;4160523;28;20204;-89
2023/09/09 02:20:10;;;;;;;1.70;1.27;;;;;;;17.74;96.35;98620.34;4155928;28;20679;-89
2023/09/09 02:22:12;;;;;;;1.65;1.55;;;;;;;17.72;96.07;98625.38;4142383;28;20209;-89
2023/09/09 02:24:14;;;;;;;1.55;1.30;;;;;;;17.70;96.11;98624.81;4146346;28;20225;-88
2023/09/09 02:26:15;;;;;;;1.48;1.38;;;;;;;17.72;95.77;98623.41;4151860;28;20204;-89
2023/09/09 02:28:17;;;;;;;2.33;2.13;;;;;;;17.64;95.44;98614.94;4143029;28;20257;-89
2023/09/09 02:30:21;;;;;;;1.90;1.80;;;;;;;17.65;95.25;98622.13;4144380;28;20221;-89
2023/09/09 02:32:23;;;;;;;5.88;1.40;;;;;;;17.59;95.56;98628.81;4152246;28;20232;-89
2023/09/09 02:34:27;;;;;;;4.00;2.03;;;;;;;17.55;95.55;98622.22;4158244;28;20783;-89
2023/09/09 02:36:29;;;;;;;1.83;1.38;;;;;;;17.51;95.08;98626.69;4157606;28;20225;-89
2023/09/09 02:38:31;;;;;;;3.58;2.10;;;;;;;17.48;95.54;98630.03;4174827;28;20196;-89
2023/09/09 02:40:32;;;;;;;2.88;2.05;;;;;;;17.38;96.00;98621.84;4171201;28;20342;-89
2023/09/09 02:42:34;;;;;;;2.22;1.63;;;;;;;17.34;96.57;98626.25;4159411;28;20401;-88
2023/09/09 02:44:35;;;;;;;1.67;1.55;;;;;;;17.32;96.50;98628.50;4147249;28;20225;-89
2023/09/09 02:46:39;;;;;;;2.30;1.40;;;;;;;17.33;97.05;98624.63;4157232;28;20270;-89
2023/09/09 02:48:41;;;;;;;3.38;2.08;;;;;;;17.27;96.90;98625.78;4155474;28;20442;-89
2023/09/09 02:50:43;;;;;;;1.05;0.95;;;;;;;17.20;96.58;98631.63;4177567;28;20259;-89
2023/09/09 02:52:48;;;;;;;2.67;1.10;;;;;;;17.17;96.80;98632.22;4163094;28;21229;-87
2023/09/09 02:54:50;;;;;;;1.25;1.15;;;;;;;17.11;96.83;98627.84;4149030;28;20248;-90
2023/09/09 02:56:52;;;;;;;1.30;1.20;;;;;;;17.09;97.70;98627.31;4144198;28;20197;-88
2023/09/09 02:58:53;;;;;;;1.77;1.50;;;;;;;17.08;97.81;98637.84;4167809;28;20263;-90
2023/09/09 03:01:03;;;;;;;1.80;1.70;;;;;;;17.09;97.78;98632.84;4146232;28;20213;-89
2023/09/09 03:03:05;;;;;;;1.10;1.10;;;;;;;17.12;97.68;98625.91;4147800;28;20299;-88
2023/09/09 03:05:07;;;;;;;9.70;1.92;;;;;;;17.14;97.45;98627.28;4147738;28;20356;-90
2023/09/09 03:07:09;;;;;;;2.97;2.05;;;;;;;17.18;97.30;98633.06;4146991;28;20240;-89
2023/09/09 03:09:14;;;;;;;2.25;1.63;;;;;;;17.19;97.27;98629.19;4160525;28;20209;-89
2023/09/09 03:11:16;;;;;;;5.93;2.35;;;;;;;17.11;97.50;98629.81;4164204;28;20212;-88
2023/09/09 03:13:18;;;;;;;1.60;1.50;;;;;;;17.06;97.38;98629.84;4162597;28;20216;-89
2023/09/09 03:15:19;;;;;;;1.33;1.23;;;;;;;17.08;97.50;98628.44;4147558;28;20309;-88
2023/09/09 03:17:21;;;;;;;1.30;1.20;;;;;;;17.02;98.12;98623.22;4164865;28;20678;-89
2023/09/09 03:19:23;;;;;;;1.48;1.38;;;;;;;16.89;98.15;98626.63;4161158;28;20267;-89
2023/09/09 03:21:24;;;;;;;1.65;1.52;;;;;;;16.90;98.19;98631.06;4148591;28;20292;-89
2023/09/09 03:23:26;;;;;;;1.75;1.65;;;;;;;16.93;98.46;98630.50;4163981;28;20240;-90
2023/09/09 03:25:28;;;;;;;2.30;1.75;;;;;;;16.89;98.23;98623.06;4147699;28;20229;-89
2023/09/09 03:27:29;;;;;;;1.75;1.40;;;;;;;16.85;98.55;98628.34;4160073;28;20220;-87
2023/09/09 03:29:31;;;;;;;3.88;2.78;;;;;;;16.81;98.61;98630.03;4148748;28;20717;-90
2023/09/09 03:31:34;;;;;;;1.63;1.52;;;;;;;16.83;98.32;98635.28;4147958;28;20209;-89
2023/09/09 03:33:35;;;;;;;5.22;1.90;;;;;;;16.82;98.44;98631.66;4160509;28;20714;-89
2023/09/09 03:35:38;;;;;;;2.55;1.73;;;;;;;16.81;98.41;98624.50;4163704;28;20230;-89
2023/09/09 03:37:39;;;;;;;1.23;1.23;;;;;;;16.80;98.29;98625.59;4145429;28;20201;-89
2023/09/09 03:39:42;;;;;;;3.28;1.40;;;;;;;16.82;98.54;98628.91;4146719;28;20299;-89
2023/09/09 03:41:43;;;;;;;1.88;1.60;;;;;;;16.81;98.13;98632.78;4144008;28;20594;-89
2023/09/09 03:43:45;;;;;;;2.25;1.63;;;;;;;16.84;98.42;98621.13;4160124;28;20197;-89
2023/09/09 03:45:53;;;;;;;1.38;1.27;;;;;;;16.83;97.95;98624.22;4144361;28;20229;-89
2023/09/09 03:47:55;;;;;;;1.45;1.35;;;;;;;16.74;98.10;98621.22;4158431;28;20252;-88
2023/09/09 03:49:59;;;;;;;2.10;1.48;;;;;;;16.77;98.22;98620.63;4160944;28;20320;-89
2023/09/09 03:52:02;;;;;;;2.75;1.80;;;;;;;16.65;97.99;98622.97;4146205;28;20233;-89
2023/09/09 03:54:05;;;;;;;2.55;1.70;;;;;;;16.59;98.68;98618.56;4158992;28;20232;-89
2023/09/09 03:56:06;;;;;;;1.40;1.30;;;;;;;16.62;99.18;98618.00;4146623;28;20579;-90
2023/09/09 03:58:13;;;;;;;1.67;1.58;;;;;;;16.62;99.46;98617.19;4141502;28;20317;-88
2023/09/09 04:00:16;;;;;;;2.42;2.13;;;;;;;16.59;98.97;98621.34;4145051;28;20209;-89
2023/09/09 04:02:18;;;;;;;1.63;1.52;;;;;;;16.59;98.77;98618.56;4177458;28;20219;-88
2023/09/09 04:04:20;;;;;;;1.77;1.40;;;;;;;16.62;98.95;98628.22;4163576;28;20221;-89
2023/09/09 04:06:23;;;;;;;1.65;1.40;;;;;;;16.65;99.23;98628.47;4158231;28;20209;-88
2023/09/09 04:08:25;;;;;;;1.45;1.35;;;;;;;16.63;98.99;98630.69;4146592;28;22386;-89
2023/09/09 04:10:27;;;;;;;2.78;2.10;;;;;;;16.65;98.81;98628.47;4167394;28;20214;-90
2023/09/09 04:12:28;;;;;;;7.47;2.03;;;;;;;16.67;98.94;98631.78;4167249;28;20196;-89
2023/09/09 04:14:30;;;;;;;1.63;1.52;;;;;;;16.64;98.54;98637.06;4163581;28;20228;-88
2023/09/09 04:16:31;;;;;;;1.48;1.25;;;;;;;16.65;98.61;98634.00;4148201;28;20247;-89
2023/09/09 04:18:37;;;;;;;1.83;1.23;;;;;;;16.63;98.33;98625.16;4147505;28;20293;-89
2023/09/09 04:20:47;;;;;;;2.10;1.90;;;;;;;16.62;98.38;98634.56;4147535;28;20213;-89
2023/09/09 04:22:49;;;;;;;2.45;1.50;;;;;;;16.62;98.22;98633.75;4146619;28;20345;-89
2023/09/09 04:24:53;;;;;;;4.50;1.95;;;;;;;16.58;98.24;98630.75;4162408;28;20234;-89
2023/09/09 04:26:55;;;;;;;2.55;2.35;;;;;;;16.50;98.07;98631.31;4145509;28;20212;-87
2023/09/09 04:28:57;;;;;;;7.88;2.05;;;;;;;16.41;98.10;98626.69;4149929;28;20228;-89
2023/09/09 04:30:58;;;;;;;2.20;1.90;;;;;;;16.35;98.65;98628.63;4162909;28;20249;-89
2023/09/09 04:33:03;;;;;;;2.53;2.05;;;;;;;16.30;98.86;98630.59;4159005;28;20276;-89
2023/09/09 04:35:05;;;;;;;1.70;1.33;;;;;;;16.30;99.01;98630.59;4175509;28;20307;-88
2023/09/09 04:37:07;;;;;;;1.88;1.45;;;;;;;16.26;99.11;98627.56;4164239;28;20208;-88
2023/09/09 04:39:09;;;;;;;1.27;1.17;;;;;;;16.25;99.26;98634.22;4169482;28;20212;-91
2023/09/09 04:41:11;;;;;;;2.03;1.92;;;;;;;16.24;99.37;98621.47;4165855;28;20204;-89
2023/09/09 04:43:12;;;;;;;3.53;1.98;;;;;;;16.29;99.53;98629.75;4155097;28;20211;-89
2023/09/09 04:45:14;;;;;;;1.98;1.67;;;;;;;16.27;99.00;98636.66;4162884;28;20325;-86
2023/09/09 04:47:15;;;;;;;1.67;1.38;;;;;;;16.27;99.35;98631.97;4146429;28;20209;-89
2023/09/09 04:49:17;;;;;;;2.22;2.03;;;;;;;16.21;99.66;98633.09;4160948;28;20706;-89
2023/09/09 04:51:19;;;;;;;2.03;1.80;;;;;;;16.17;100.00;98625.69;4160257;28;20215;-89
2023/09/09 04:53:20;;;;;;;1.95;1.80;;;;;;;16.15;100.00;98634.25;4148463;28;20316;-88
2023/09/09 04:55:22;;;;;;;2.00;1.73;;;;;;;16.12;100.00;98640.34;4147145;28;20233;-89
2023/09/09 04:57:24;;;;;;;1.55;1.45;;;;;;;16.15;100.00;98634.25;4157467;28;20220;-88
2023/09/09 04:59:26;;;;;;;1.52;1.42;;;;;;;16.23;100.00;98641.13;4142973;28;20201;-88
2023/09/09 05:01:27;;;;;;;2.30;2.10;;;;;;;16.21;100.00;98641.41;4162753;28;20655;-89
2023/09/09 05:03:29;;;;;;;1.45;1.25;;;;;;;16.18;100.00;98633.69;4154113;28;20620;-89
2023/09/09 05:05:31;;;;;;;7.55;2.20;;;;;;;16.12;100.00;98645.88;4163293;28;20228;-88
2023/09/09 05:07:34;;;;;;;1.27;1.27;;;;;;;16.12;99.98;98642.25;4147398;28;20275;-89
2023/09/09 05:09:36;;;;;;;1.67;1.33;;;;;;;16.15;100.00;98639.75;4145068;28;20209;-87
2023/09/09 05:11:37;;;;;;;1.83;1.73;;;;;;;16.17;99.89;98643.06;4142693;28;20233;-88
2023/09/09 05:13:39;;;;;;;0.82;0.82;;;;;;;16.10;99.88;98637.00;4158199;28;20606;-89
2023/09/09 05:15:41;;;;;;;1.60;1.17;;;;;;;16.10;100.00;98633.44;4145353;28;20295;-88
2023/09/09 05:17:42;;;;;;;1.65;1.45;;;;;;;16.11;100.00;98633.16;4145163;28;20244;-88
2023/09/09 05:19:44;;;;;;;1.10;1.00;;;;;;;16.14;99.98;98640.88;4161915;28;20200;-89
2023/09/09 05:21:46;;;;;;;2.58;1.45;;;;;;;16.07;99.68;98637.59;4144228;28;20296;-88
2023/09/09 05:23:47;;;;;;;3.15;1.75;;;;;;;16.08;100.00;98639.25;4155595;28;20210;-90
2023/09/09 05:25:49;;;;;;;2.38;1.30;;;;;;;16.16;100.00;98641.41;4144814;28;20228;-89
2023/09/09 05:27:51;;;;;;;1.65;1.55;;;;;;;16.24;100.00;98643.56;4145466;28;20316;-88
2023/09/09 05:29:53;;;;;;;1.67;1.58;;;;;;;16.13;100.00;98642.00;4162460;28;20686;-88
2023/09/09 05:31:54;;;;;;;1.15;1.05;;;;;;;16.11;100.00;98649.75;4148568;28;20255;-88
2023/09/09 05:33:56;;;;;;;1.42;1.33;;;;;;;16.15;100.00;98650.81;4160884;28;20204;-88
2023/09/09 05:36:03;;;;;;;2.00;1.33;;;;;;;16.20;100.00;98652.72;4141952;28;20202;-88
2023/09/09 05:38:04;;;;;;;2.58;1.88;;;;;;;16.26;100.00;98654.34;4144171;28;20565;-87
2023/09/09 05:40:06;;;;;;;1.88;1.77;;;;;;;16.23;100.00;98649.41;4144882;28;20668;-90
2023/09/09 05:42:08;;;;;;;1.60;1.50;;;;;;;16.26;100.00;98651.59;4142928;28;20244;-88
2023/09/09 05:44:09;;;;;;;4.05;2.22;;;;;;;16.34;100.00;98649.06;4137052;28;20253;-89
2023/09/09 05:46:11;;;;;;;2.40;1.83;;;;;;;16.43;100.00;98654.88;4177230;28;20733;-88
2023/09/09 05:48:13;;;;;;;3.50;1.85;;;;;;;16.50;100.00;98653.41;4146084;28;20228;-88
2023/09/09 05:50:15;;;;;;;1.83;1.73;;;;;;;16.72;100.00;98659.38;4164119;28;20216;-88
2023/09/09 05:52:16;;;;;;;1.73;1.42;;;;;;;16.81;100.00;98665.94;4160937;28;20423;-89
2023/09/09 05:54:18;;;;;;;3.30;2.38;;;;;;;17.04;100.00;98665.22;4161741;28;20741;-88
2023/09/09 05:56:19;;;;;;;2.35;1.58;;;;;;;17.12;100.00;98667.41;4144056;28;20253;-88
2023/09/09 05:58:21;;;;;;;1.83;1.73;;;;;;;17.25;100.00;98666.75;4173725;28;20204;-87
2023/09/09 06:00:25;;;;;;;2.10;2.00;;;;;;;17.54;100.00;98664.84;4155859;28;20206;-88
2023/09/09 06:02:26;;;;;;;2.42;2.22;;;;;;;17.76;100.00;98662.41;4159690;28;20212;-89
2023/09/09 06:04:28;;;;;;;2.22;1.70;;;;;;;18.08;100.00;98666.22;4144293;28;20225;-88
2023/09/09 06:06:30;;;;;;;1.83;1.67;;;;;;;18.36;99.20;98661.72;4145065;28;20672;-88
2023/09/09 06:08:31;;;;;;;1.35;1.23;;;;;;;18.76;97.20;98664.78;4160354;28;20224;-88
2023/09/09 06:10:33;;;;;;;2.30;2.17;;;;;;;18.75;95.02;98665.91;4146915;28;20231;-88
2023/09/09 06:12:35;;;;;;;2.17;1.83;;;;;;;19.02;93.78;98665.22;4161843;28;20641;-88
2023/09/09 06:14:36;;;;;;;1.50;1.40;;;;;;;19.03;92.40;98673.25;4158633;28;20229;-89
2023/09/09 06:16:38;;;;;;;2.50;2.38;;;;;;;19.24;89.86;98676.59;4149020;28;20209;-88
2023/09/09 06:18:40;;;;;;;2.28;1.85;;;;;;;19.12;88.81;98677.00;4152473;28;20618;-89
2023/09/09 06:20:48;;;;;;;1.30;1.20;;;;;;;19.55;89.77;98674.94;4164146;28;20682;-87
2023/09/09 06:22:52;;;;;;;1.83;1.73;;;;;;;20.05;88.29;98676.78;4145766;28;20205;-88
2023/09/09 06:24:54;;;;;;;2.40;2.20;;;;;;;20.10;85.84;98676.75;4160890;28;20296;-88
2023/09/09 06:26:56;;;;;;;1.90;1.80;;;;;;;19.98;84.55;98674.41;4161173;28;20200;-88
2023/09/09 06:28:58;;;;;;;1.48;1.38;;;;;;;20.17;85.01;98685.50;4155835;28;20217;-87
2023/09/09 06:31:00;;;;;;;2.33;2.10;;;;;;;20.30;83.03;98687.44;4157594;28;20201;-88
2023/09/09 06:33:04;;;;;;;2.13;1.30;;;;;;;20.31;83.26;98689.09;4155543;28;20621;-88
2023/09/09 06:35:07;;;;;;;2.50;2.22;;;;;;;20.27;83.08;98686.09;4151099;28;20254;-88
2023/09/09 06:37:10;;;;;;;2.17;1.92;;;;;;;20.33;85.73;98686.81;4142961;28;20213;-87
2023/09/09 06:39:12;;;;;;;2.63;1.85;;;;;;;20.31;85.96;98691.88;4159362;28;20204;-88
2023/09/09 06:41:13;;;;;;;3.13;2.10;;;;;;;20.93;85.91;98691.13;4171914;28;20255;-88
2023/09/09 06:43:19;;;;;;;1.85;1.75;;;;;;;20.98;82.58;98693.78;4156240;28;20227;-89
2023/09/09 06:45:22;;;;;;;2.38;1.40;;;;;;;21.65;82.57;98703.84;4142058;28;20287;-89
2023/09/09 06:47:23;;;;;;;2.22;1.77;;;;;;;21.93;79.29;98705.38;4144736;28;20213;-88
2023/09/09 06:49:25;;;;;;;1.70;1.60;;;;;;;21.56;77.84;98689.03;4159585;28;20232;-88
2023/09/09 06:51:27;;;;;;;2.75;1.90;;;;;;;21.97;78.05;98700.81;4159658;28;20755;-88
2023/09/09 06:53:28;;;;;;;3.95;1.65;;;;;;;22.55;74.98;98695.84;4141471;28;20324;-88
2023/09/09 06:55:32;;;;;;;2.85;1.98;;;;;;;22.57;76.04;98701.94;4158382;28;21015;-88
2023/09/09 06:57:34;;;;;;;2.90;2.00;;;;;;;23.05;73.30;98699.94;4153094;28;20629;-87
2023/09/09 06:59:36;;;;;;;2.38;1.65;;;;;;;22.32;74.82;98705.41;4159152;28;20646;-88
2023/09/09 07:01:38;;;;;;;2.05;1.83;;;;;;;22.22;74.91;98703.72;4156427;28;20232;-87
2023/09/09 07:03:40;;;;;;;3.35;2.47;;;;;;;23.35;71.78;98701.78;4135208;28;20269;-88
2023/09/09 07:05:42;;;;;;;1.48;1.38;;;;;;;23.33;73.56;98704.09;4148023;28;20225;-88
2023/09/09 07:07:44;;;;;;;2.38;1.80;;;;;;;23.48;71.14;98709.16;4148135;28;20291;-87
2023/09/09 07:09:45;;;;;;;18.98;2.35;;;;;;;24.16;68.57;98716.34;4161104;28;20224;-88
2023/09/09 07:11:47;;;;;;;2.47;1.77;;;;;;;24.47;69.42;98702.88;4160638;28;20221;-88
2023/09/09 07:13:49;;;;;;;3.63;2.40;;;;;;;24.77;65.63;98710.19;4159760;28;20201;-88
2023/09/09 07:15:53;;;;;;;2.22;1.67;;;;;;;24.64;66.62;98707.63;4176475;28;20281;-87
2023/09/09 07:17:55;;;;;;;2.20;1.67;;;;;;;23.70;71.06;98709.00;4144862;28;20205;-87
2023/09/09 07:19:57;;;;;;;2.58;1.95;;;;;;;23.97;69.92;98709.47;4158502;28;20653;-87
2023/09/09 07:21:58;;;;;;;1.98;1.80;;;;;;;23.23;74.11;98707.22;4160428;28;20755;-87
2023/09/09 07:24:00;;;;;;;1.65;1.30;;;;;;;23.18;73.41;98707.38;4144235;28;20197;-87
2023/09/09 07:26:02;;;;;;;1.13;1.02;;;;;;;24.16;70.98;98702.38;4144930;28;20209;-87
2023/09/09 07:28:06;;;;;;;2.30;1.65;;;;;;;24.94;67.79;98710.09;4155193;28;20204;-87
2023/09/09 07:30:10;;;;;;;2.00;1.70;;;;;;;25.09;67.00;98703.91;4163287;28;20204;-87
2023/09/09 07:32:11;;;;;;;5.85;1.73;;;;;;;23.66;70.61;98713.59;4144188;28;20239;-87
2023/09/09 07:34:13;;;;;;;1.90;1.80;;;;;;;24.12;69.08;98712.56;4178739;28;20204;-87
2023/09/09 07:36:15;;;;;;;1.75;1.40;;;;;;;24.64;70.61;98711.25;4149879;28;20232;-88
2023/09/09 07:38:18;;;;;;;1.90;1.65;;;;;;;24.34;68.47;98706.72;4162182;28;20299;-87
2023/09/09 07:40:20;;;;;;;2.17;1.42;;;;;;;23.46;70.64;98705.91;4162334;28;20685;-87
2023/09/09 07:42:21;;;;;;;1.20;1.10;;;;;;;23.73;71.67;98709.97;4148296;28;20209;-88
2023/09/09 07:44:23;;;;;;;13.20;1.80;;;;;;;24.15;69.87;98709.13;4161088;28;20224;-87
2023/09/09 07:46:24;;;;;;;3.85;1.95;;;;;;;24.09;70.95;98704.03;4144721;28;20239;-87
2023/09/09 07:48:26;;;;;;;1.75;1.27;;;;;;;24.05;69.16;98709.47;4161163;28;20239;-87
2023/09/09 07:50:28;;;;;;;2.72;1.58;;;;;;;23.91;71.13;98702.41;4164255;28;20719;-88
2023/09/09 07:52:29;;;;;;;2.30;2.10;;;;;;;24.14;70.60;98696.25;4145410;28;20211;-87
2023/09/09 07:54:31;;;;;;;1.60;1.10;;;;;;;25.18;66.68;98698.22;4162538;28;20224;-87
2023/09/09 07:56:33;;;;;;;2.40;1.90;;;;;;;24.81;66.63;98697.16;4164899;28;20213;-87
2023/09/09 07:58:34;;;;;;;1.52;1.27;;;;;;;25.19;66.95;98695.09;4159776;28;20235;-88
2023/09/09 08:00:38;;;;;;;14.55;1.33;;;;;;;25.82;66.52;98702.34;4148340;28;20333;-87
2023/09/09 08:02:40;;;;;;;1.40;1.02;;;;;;;25.65;66.36;98703.31;4163114;28;20276;-87
2023/09/09 08:04:42;;;;;;;1.58;1.00;;;;;;;26.01;65.48;98709.13;4145599;28;20224;-87
2023/09/09 08:06:45;;;;;;;1.70;1.60;;;;;;;26.34;65.55;98712.72;4179225;28;20306;-87
2023/09/09 08:08:47;;;;;;;1.48;1.33;;;;;;;26.60;64.50;98713.22;4162829;28;20223;-88
2023/09/09 08:10:49;;;;;;;1.55;0.93;;;;;;;27.01;63.28;98718.66;4153277;28;20205;-87
2023/09/09 08:12:55;;;;;;;3.03;1.85;;;;;;;26.30;63.44;98720.19;4148175;28;20223;-86
2023/09/09 08:15:08;;;;;;;1.33;1.23;;;;;;;25.41;65.66;98714.44;4160404;28;20243;-87
2023/09/09 08:17:09;;;;;;;2.33;2.13;;;;;;;26.40;64.44;98713.31;4158812;28;20243;-87
2023/09/09 08:19:11;;;;;;;3.17;1.63;;;;;;;26.23;64.09;98725.56;4144953;28;20771;-88
2023/09/09 08:21:15;;;;;;;1.20;1.10;;;;;;;26.61;62.66;98720.50;4146265;28;20209;-88
2023/09/09 08:23:17;;;;;;;2.30;1.63;;;;;;;26.09;62.64;98719.44;4141953;28;20200;-87
2023/09/09 08:25:19;;;;;;;3.10;2.10;;;;;;;26.04;63.79;98722.44;4144802;28;20595;-88
2023/09/09 08:27:20;;;;;;;2.80;2.15;;;;;;;25.80;63.15;98722.31;4176387;28;20228;-86
2023/09/09 08:29:22;;;;;;;5.78;2.15;;;;;;;25.66;64.64;98716.19;4143132;28;20264;-88
2023/09/09 08:31:23;;;;;;;11.45;2.38;;;;;;;27.27;61.44;98716.28;4175673;28;20264;-86
2023/09/09 08:33:26;;;;;;;2.22;1.65;;;;;;;27.47;60.49;98718.09;4155356;28;20200;-86
2023/09/09 08:35:31;;;;;;;1.35;1.25;;;;;;;27.86;59.54;98717.31;4138780;28;20224;-86
2023/09/09 08:37:33;;;;;;;2.30;1.75;;;;;;;27.50;59.32;98714.59;4156708;28;20200;-88
2023/09/09 08:39:34;;;;;;;1.17;0.95;;;;;;;27.72;60.28;98719.69;4139282;28;22525;-87
2023/09/09 08:41:49;;;;;;;1.40;1.30;;;;;;;28.34;59.21;98719.06;4157001;28;20201;-86
2023/09/09 08:44:25;;;;;;;1.65;1.40;;;;;;;29.24;56.88;98712.19;4160465;28;20210;-87
2023/09/09 08:46:27;;;;;;;1.50;1.20;;;;;;;28.79;55.68;98711.03;4174204;28;20218;-88
2023/09/09 08:48:33;;;;;;;1.25;1.00;;;;;;;28.63;58.48;98719.50;4154890;28;20682;-86
2023/09/09 08:50:38;;;;;;;2.30;1.65;;;;;;;29.44;55.92;98711.03;4159880;28;20196;-86
2023/09/09 08:52:40;;;;;;;2.78;1.90;;;;;;;29.92;54.77;98716.13;4165635;28;20817;-87
2023/09/09 08:54:42;;;;;;;1.92;1.52;;;;;;;29.86;55.71;98711.19;4155690;28;21170;-86
2023/09/09 08:56:44;;;;;;;2.13;1.52;;;;;;;28.56;55.46;98710.03;4146902;28;20204;-86
2023/09/09 08:58:46;;;;;;;1.83;1.52;;;;;;;29.54;56.59;98710.50;4161851;28;20208;-87
2023/09/09 09:00:49;;;;;;;2.13;1.45;;;;;;;30.02;54.76;98704.25;4145343;28;20223;-87
2023/09/09 09:02:50;;;;;;;1.40;1.25;;;;;;;28.34;57.62;98700.19;4145474;28;20208;-86
2023/09/09 09:04:52;;;;;;;1.77;1.63;;;;;;;28.70;57.87;98708.41;4161641;28;20231;-87
2023/09/09 09:06:55;;;;;;;1.42;1.33;;;;;;;29.24;56.40;98700.91;4161426;28;20206;-87
2023/09/09 09:08:57;;;;;;;1.45;1.08;;;;;;;29.25;55.39;98705.34;4153423;28;20294;-87
2023/09/09 09:10:59;;;;;;;1.23;1.13;;;;;;;29.60;55.97;98709.03;4144029;28;20221;-87
2023/09/09 09:13:01;;;;;;;1.55;1.02;;;;;;;29.12;55.58;98703.84;4146660;28;20219;-87
2023/09/09 09:15:05;;;;;;;2.55;2.35;;;;;;;29.00;55.97;98703.97;4149357;28;20217;-87
2023/09/09 09:17:07;;;;;;;1.08;0.90;;;;;;;29.49;55.84;98707.94;4162509;28;20215;-86
2023/09/09 09:19:21;;;;;;;2.35;1.90;;;;;;;29.26;54.98;98706.97;4163382;28;20204;-88
2023/09/09 09:21:23;;;;;;;1.65;1.13;;;;;;;29.51;57.39;98699.91;4147636;28;20292;-87
2023/09/09 09:23:24;;;;;;;2.33;1.17;;;;;;;29.58;53.87;98694.44;4144008;28;20213;-87
2023/09/09 09:25:27;;;;;;;1.25;0.93;;;;;;;28.96;56.35;98705.03;4158042;28;20255;-87
2023/09/09 09:27:31;;;;;;;2.80;2.05;;;;;;;29.01;55.52;98702.78;4142835;28;20209;-88
2023/09/09 09:29:41;;;;;;;2.00;1.85;;;;;;;30.10;54.23;98706.06;4139348;28;20224;-88
2023/09/09 09:31:49;;;;;;;1.55;1.20;;;;;;;30.72;52.97;98702.81;4172368;28;20203;-88
2023/09/09 09:33:56;;;;;;;1.40;1.30;;;;;;;31.33;51.95;98705.47;4176814;28;20851;-87
2023/09/09 09:36:01;;;;;;;1.38;1.20;;;;;;;31.64;51.21;98698.25;4142214;28;20650;-88